sensor_id;sensor_type;location;lat;lon;timestamp;P1;durP1;ratioP1;P2;durP2;ratioP2
10939;SDS011;5522;42.696;23.494;2023-12-20T00:01:12;143.73;;;45.92;;
10939;SDS011;5522;42.696;23.494;2023-12-20T00:03:39;133.13;;;45.70;;
10939;SDS011;5522;42.696;23.494;2023-12-20T00:06:06;103.70;;;39.80;;
10939;SDS011;5522;42.696;23.494;2023-12-20T00:08:33;274.55;;;48.60;;
10939;SDS011;5522;42.696;23.494;2023-12-20T00:11:00;107.78;;;39.03;;
10939;SDS011;5522;42.696;23.494;2023-12-20T00:13:26;96.07;;;38.50;;
10939;SDS011;5522;42.696;23.494;2023-12-20T00:15:53;124.25;;;41.88;;
10939;SDS011;5522;42.696;23.494;2023-12-20T00:18:21;98.40;;;40.83;;
10939;SDS011;5522;42.696;23.494;2023-12-20T00:20:48;113.20;;;38.33;;
10939;SDS011;5522;42.696;23.494;2023-12-20T00:23:15;91.50;;;38.20;;
10939;SDS011;5522;42.696;23.494;2023-12-20T00:25:42;102.43;;;40.80;;
10939;SDS011;5522;42.696;23.494;2023-12-20T00:28:08;119.95;;;47.58;;
10939;SDS011;5522;42.696;23.494;2023-12-20T00:30:35;96.90;;;42.05;;
10939;SDS011;5522;42.696;23.494;2023-12-20T00:33:02;113.28;;;46.72;;
10939;SDS011;5522;42.696;23.494;2023-12-20T00:35:30;127.85;;;47.83;;
10939;SDS011;5522;42.696;23.494;2023-12-20T00:37:57;108.40;;;45.35;;
10939;SDS011;5522;42.696;23.494;2023-12-20T00:40:24;124.65;;;47.78;;
10939;SDS011;5522;42.696;23.494;2023-12-20T00:42:51;120.45;;;47.15;;
10939;SDS011;5522;42.696;23.494;2023-12-20T00:45:18;145.63;;;47.85;;
10939;SDS011;5522;42.696;23.494;2023-12-20T00:47:45;122.10;;;43.55;;
10939;SDS011;5522;42.696;23.494;2023-12-20T00:50:11;121.20;;;45.50;;
10939;SDS011;5522;42.696;23.494;2023-12-20T00:52:39;152.88;;;46.90;;
10939;SDS011;5522;42.696;23.494;2023-12-20T00:55:06;168.50;;;48.85;;
10939;SDS011;5522;42.696;23.494;2023-12-20T00:57:33;136.68;;;47.45;;
10939;SDS011;5522;42.696;23.494;2023-12-20T01:00:00;122.75;;;44.75;;
10939;SDS011;5522;42.696;23.494;2023-12-20T01:07:39;144.63;;;49.47;;
10939;SDS011;5522;42.696;23.494;2023-12-20T01:10:10;125.70;;;44.72;;
10939;SDS011;5522;42.696;23.494;2023-12-20T01:12:37;172.90;;;49.85;;
10939;SDS011;5522;42.696;23.494;2023-12-20T01:15:04;119.13;;;44.53;;
10939;SDS011;5522;42.696;23.494;2023-12-20T01:17:32;126.30;;;49.63;;
10939;SDS011;5522;42.696;23.494;2023-12-20T01:19:58;159.32;;;51.72;;
10939;SDS011;5522;42.696;23.494;2023-12-20T01:22:25;140.60;;;49.83;;
10939;SDS011;5522;42.696;23.494;2023-12-20T01:24:53;143.60;;;57.28;;
10939;SDS011;5522;42.696;23.494;2023-12-20T01:27:20;161.70;;;59.40;;
10939;SDS011;5522;42.696;23.494;2023-12-20T01:29:47;166.60;;;60.33;;
10939;SDS011;5522;42.696;23.494;2023-12-20T01:32:14;142.50;;;47.00;;
10939;SDS011;5522;42.696;23.494;2023-12-20T01:34:41;107.95;;;36.55;;
10939;SDS011;5522;42.696;23.494;2023-12-20T01:37:07;118.65;;;40.55;;
10939;SDS011;5522;42.696;23.494;2023-12-20T01:39:34;104.25;;;37.25;;
10939;SDS011;5522;42.696;23.494;2023-12-20T01:42:02;102.80;;;35.65;;
10939;SDS011;5522;42.696;23.494;2023-12-20T01:44:29;103.10;;;35.17;;
10939;SDS011;5522;42.696;23.494;2023-12-20T01:46:56;90.57;;;32.53;;
10939;SDS011;5522;42.696;23.494;2023-12-20T01:49:23;90.13;;;32.25;;
10939;SDS011;5522;42.696;23.494;2023-12-20T01:51:50;77.00;;;31.67;;
10939;SDS011;5522;42.696;23.494;2023-12-20T01:54:18;78.28;;;31.05;;
10939;SDS011;5522;42.696;23.494;2023-12-20T01:56:47;77.43;;;31.27;;
10939;SDS011;5522;42.696;23.494;2023-12-20T01:59:18;73.45;;;31.58;;
10939;SDS011;5522;42.696;23.494;2023-12-20T02:01:46;88.43;;;32.15;;
10939;SDS011;5522;42.696;23.494;2023-12-20T02:04:12;82.05;;;29.75;;
10939;SDS011;5522;42.696;23.494;2023-12-20T02:06:40;74.57;;;28.67;;
10939;SDS011;5522;42.696;23.494;2023-12-20T02:09:07;96.38;;;29.50;;
10939;SDS011;5522;42.696;23.494;2023-12-20T02:11:34;102.38;;;30.83;;
10939;SDS011;5522;42.696;23.494;2023-12-20T02:14:02;81.88;;;31.38;;
10939;SDS011;5522;42.696;23.494;2023-12-20T02:16:30;122.38;;;32.20;;
10939;SDS011;5522;42.696;23.494;2023-12-20T02:18:57;122.10;;;33.00;;
10939;SDS011;5522;42.696;23.494;2023-12-20T02:21:31;123.63;;;35.90;;
10939;SDS011;5522;42.696;23.494;2023-12-20T02:23:58;90.18;;;34.28;;
10939;SDS011;5522;42.696;23.494;2023-12-20T02:26:25;117.10;;;37.10;;
10939;SDS011;5522;42.696;23.494;2023-12-20T02:28:52;183.55;;;36.67;;
10939;SDS011;5522;42.696;23.494;2023-12-20T02:31:20;110.05;;;35.30;;
10939;SDS011;5522;42.696;23.494;2023-12-20T02:33:47;115.05;;;32.15;;
10939;SDS011;5522;42.696;23.494;2023-12-20T02:36:14;151.98;;;33.45;;
10939;SDS011;5522;42.696;23.494;2023-12-20T02:38:42;122.72;;;33.90;;
10939;SDS011;5522;42.696;23.494;2023-12-20T02:41:09;99.00;;;34.58;;
10939;SDS011;5522;42.696;23.494;2023-12-20T02:43:36;102.65;;;34.83;;
10939;SDS011;5522;42.696;23.494;2023-12-20T02:46:02;157.73;;;37.00;;
10939;SDS011;5522;42.696;23.494;2023-12-20T02:48:29;100.68;;;31.52;;
10939;SDS011;5522;42.696;23.494;2023-12-20T02:50:56;133.35;;;34.83;;
10939;SDS011;5522;42.696;23.494;2023-12-20T02:53:23;137.15;;;33.30;;
10939;SDS011;5522;42.696;23.494;2023-12-20T02:55:51;88.60;;;32.35;;
10939;SDS011;5522;42.696;23.494;2023-12-20T02:58:18;129.23;;;34.08;;
10939;SDS011;5522;42.696;23.494;2023-12-20T03:00:44;99.70;;;31.00;;
10939;SDS011;5522;42.696;23.494;2023-12-20T03:03:11;114.60;;;32.72;;
10939;SDS011;5522;42.696;23.494;2023-12-20T03:05:38;94.10;;;29.20;;
10939;SDS011;5522;42.696;23.494;2023-12-20T03:08:05;78.18;;;27.50;;
10939;SDS011;5522;42.696;23.494;2023-12-20T03:10:32;85.43;;;27.92;;
10939;SDS011;5522;42.696;23.494;2023-12-20T03:13:00;105.13;;;34.60;;
10939;SDS011;5522;42.696;23.494;2023-12-20T03:15:27;107.05;;;35.25;;
10939;SDS011;5522;42.696;23.494;2023-12-20T03:17:53;97.55;;;32.05;;
10939;SDS011;5522;42.696;23.494;2023-12-20T03:20:20;86.20;;;32.83;;
10939;SDS011;5522;42.696;23.494;2023-12-20T03:22:47;99.15;;;35.42;;
10939;SDS011;5522;42.696;23.494;2023-12-20T03:25:14;100.68;;;35.03;;
10939;SDS011;5522;42.696;23.494;2023-12-20T03:27:40;104.07;;;34.67;;
10939;SDS011;5522;42.696;23.494;2023-12-20T03:30:09;81.88;;;31.83;;
10939;SDS011;5522;42.696;23.494;2023-12-20T03:32:37;97.22;;;32.20;;
10939;SDS011;5522;42.696;23.494;2023-12-20T03:35:04;82.88;;;34.22;;
10939;SDS011;5522;42.696;23.494;2023-12-20T03:37:32;115.15;;;34.38;;
10939;SDS011;5522;42.696;23.494;2023-12-20T03:39:59;106.28;;;35.35;;
10939;SDS011;5522;42.696;23.494;2023-12-20T03:42:25;111.50;;;32.60;;
10939;SDS011;5522;42.696;23.494;2023-12-20T03:44:52;107.45;;;33.05;;
10939;SDS011;5522;42.696;23.494;2023-12-20T03:47:20;119.97;;;33.70;;
10939;SDS011;5522;42.696;23.494;2023-12-20T03:49:47;118.32;;;31.13;;
10939;SDS011;5522;42.696;23.494;2023-12-20T03:52:14;163.65;;;33.55;;
10939;SDS011;5522;42.696;23.494;2023-12-20T03:54:41;90.50;;;30.15;;
10939;SDS011;5522;42.696;23.494;2023-12-20T03:57:08;113.55;;;33.00;;
10939;SDS011;5522;42.696;23.494;2023-12-20T03:59:35;94.28;;;29.95;;
10939;SDS011;5522;42.696;23.494;2023-12-20T04:02:02;101.43;;;29.70;;
10939;SDS011;5522;42.696;23.494;2023-12-20T04:04:30;131.15;;;29.08;;
10939;SDS011;5522;42.696;23.494;2023-12-20T04:06:57;98.65;;;29.98;;
10939;SDS011;5522;42.696;23.494;2023-12-20T04:09:24;83.55;;;27.67;;
10939;SDS011;5522;42.696;23.494;2023-12-20T04:11:50;94.60;;;27.75;;
10939;SDS011;5522;42.696;23.494;2023-12-20T04:14:17;82.72;;;27.65;;
10939;SDS011;5522;42.696;23.494;2023-12-20T04:16:44;89.10;;;29.15;;
10939;SDS011;5522;42.696;23.494;2023-12-20T04:19:11;94.13;;;29.85;;
10939;SDS011;5522;42.696;23.494;2023-12-20T04:21:39;85.95;;;30.40;;
10939;SDS011;5522;42.696;23.494;2023-12-20T04:24:06;84.35;;;30.50;;
10939;SDS011;5522;42.696;23.494;2023-12-20T04:26:33;88.43;;;30.80;;
10939;SDS011;5522;42.696;23.494;2023-12-20T04:29:00;106.65;;;30.63;;
10939;SDS011;5522;42.696;23.494;2023-12-20T04:31:27;75.88;;;28.27;;
10939;SDS011;5522;42.696;23.494;2023-12-20T04:33:53;84.30;;;29.42;;
10939;SDS011;5522;42.696;23.494;2023-12-20T04:36:20;74.15;;;28.02;;
10939;SDS011;5522;42.696;23.494;2023-12-20T04:38:48;102.15;;;29.67;;
10939;SDS011;5522;42.696;23.494;2023-12-20T04:41:15;87.05;;;26.13;;
10939;SDS011;5522;42.696;23.494;2023-12-20T04:43:43;68.07;;;23.88;;
10939;SDS011;5522;42.696;23.494;2023-12-20T04:46:10;95.13;;;27.88;;
10939;SDS011;5522;42.696;23.494;2023-12-20T04:48:37;115.60;;;26.83;;
10939;SDS011;5522;42.696;23.494;2023-12-20T04:51:04;97.10;;;25.35;;
10939;SDS011;5522;42.696;23.494;2023-12-20T04:53:31;65.45;;;23.70;;
10939;SDS011;5522;42.696;23.494;2023-12-20T04:55:59;88.57;;;24.70;;
10939;SDS011;5522;42.696;23.494;2023-12-20T04:58:26;89.15;;;33.13;;
10939;SDS011;5522;42.696;23.494;2023-12-20T05:00:52;94.00;;;35.38;;
10939;SDS011;5522;42.696;23.494;2023-12-20T05:03:19;98.15;;;30.88;;
10939;SDS011;5522;42.696;23.494;2023-12-20T05:05:46;94.47;;;33.53;;
10939;SDS011;5522;42.696;23.494;2023-12-20T05:08:13;95.95;;;34.33;;
10939;SDS011;5522;42.696;23.494;2023-12-20T05:10:40;55.70;;;22.90;;
10939;SDS011;5522;42.696;23.494;2023-12-20T05:13:08;64.05;;;22.23;;
10939;SDS011;5522;42.696;23.494;2023-12-20T05:15:35;64.68;;;24.63;;
10939;SDS011;5522;42.696;23.494;2023-12-20T05:18:02;55.67;;;18.98;;
10939;SDS011;5522;42.696;23.494;2023-12-20T05:20:30;75.22;;;18.10;;
10939;SDS011;5522;42.696;23.494;2023-12-20T05:22:56;80.50;;;17.45;;
10939;SDS011;5522;42.696;23.494;2023-12-20T05:25:23;71.47;;;23.10;;
10939;SDS011;5522;42.696;23.494;2023-12-20T05:27:50;74.40;;;18.58;;
10939;SDS011;5522;42.696;23.494;2023-12-20T05:30:18;61.88;;;19.73;;
10939;SDS011;5522;42.696;23.494;2023-12-20T05:32:45;75.28;;;16.85;;
10939;SDS011;5522;42.696;23.494;2023-12-20T05:35:12;50.92;;;16.77;;
10939;SDS011;5522;42.696;23.494;2023-12-20T05:37:40;67.35;;;18.63;;
10939;SDS011;5522;42.696;23.494;2023-12-20T05:40:07;47.95;;;15.43;;
10939;SDS011;5522;42.696;23.494;2023-12-20T05:42:35;64.90;;;18.48;;
10939;SDS011;5522;42.696;23.494;2023-12-20T05:45:02;72.22;;;17.88;;
10939;SDS011;5522;42.696;23.494;2023-12-20T05:47:30;48.38;;;17.48;;
10939;SDS011;5522;42.696;23.494;2023-12-20T05:49:57;71.72;;;18.73;;
10939;SDS011;5522;42.696;23.494;2023-12-20T05:52:24;60.03;;;16.35;;
10939;SDS011;5522;42.696;23.494;2023-12-20T05:54:51;70.43;;;17.27;;
10939;SDS011;5522;42.696;23.494;2023-12-20T05:57:17;50.13;;;15.10;;
10939;SDS011;5522;42.696;23.494;2023-12-20T05:59:44;49.22;;;16.98;;
10939;SDS011;5522;42.696;23.494;2023-12-20T06:02:11;41.15;;;12.52;;
10939;SDS011;5522;42.696;23.494;2023-12-20T06:04:41;45.17;;;12.02;;
10939;SDS011;5522;42.696;23.494;2023-12-20T06:07:08;38.53;;;11.57;;
10939;SDS011;5522;42.696;23.494;2023-12-20T06:09:37;65.25;;;12.15;;
10939;SDS011;5522;42.696;23.494;2023-12-20T06:12:04;45.33;;;14.65;;
10939;SDS011;5522;42.696;23.494;2023-12-20T06:14:31;89.55;;;18.88;;
10939;SDS011;5522;42.696;23.494;2023-12-20T06:16:58;63.20;;;13.07;;
10939;SDS011;5522;42.696;23.494;2023-12-20T06:19:26;45.42;;;13.73;;
10939;SDS011;5522;42.696;23.494;2023-12-20T06:21:54;51.95;;;14.10;;
10939;SDS011;5522;42.696;23.494;2023-12-20T06:24:21;81.43;;;23.50;;
10939;SDS011;5522;42.696;23.494;2023-12-20T06:26:48;89.18;;;28.10;;
10939;SDS011;5522;42.696;23.494;2023-12-20T06:29:14;140.50;;;36.83;;
10939;SDS011;5522;42.696;23.494;2023-12-20T06:31:41;328.33;;;103.53;;
10939;SDS011;5522;42.696;23.494;2023-12-20T06:34:08;125.53;;;40.78;;
10939;SDS011;5522;42.696;23.494;2023-12-20T06:36:35;110.03;;;32.70;;
10939;SDS011;5522;42.696;23.494;2023-12-20T06:39:03;146.43;;;44.22;;
10939;SDS011;5522;42.696;23.494;2023-12-20T06:41:30;72.28;;;26.77;;
10939;SDS011;5522;42.696;23.494;2023-12-20T06:43:57;118.00;;;37.00;;
10939;SDS011;5522;42.696;23.494;2023-12-20T06:46:24;93.70;;;31.73;;
10939;SDS011;5522;42.696;23.494;2023-12-20T06:48:51;99.43;;;33.65;;
10939;SDS011;5522;42.696;23.494;2023-12-20T06:51:18;65.63;;;24.10;;
10939;SDS011;5522;42.696;23.494;2023-12-20T06:53:45;67.10;;;24.08;;
10939;SDS011;5522;42.696;23.494;2023-12-20T06:56:14;75.88;;;19.60;;
10939;SDS011;5522;42.696;23.494;2023-12-20T06:58:41;71.95;;;20.27;;
10939;SDS011;5522;42.696;23.494;2023-12-20T07:01:10;88.90;;;19.27;;
10939;SDS011;5522;42.696;23.494;2023-12-20T07:03:37;69.70;;;18.70;;
10939;SDS011;5522;42.696;23.494;2023-12-20T07:06:04;82.68;;;26.25;;
10939;SDS011;5522;42.696;23.494;2023-12-20T07:08:31;104.22;;;36.10;;
10939;SDS011;5522;42.696;23.494;2023-12-20T07:10:58;79.13;;;23.13;;
10939;SDS011;5522;42.696;23.494;2023-12-20T07:13:26;82.15;;;24.33;;
10939;SDS011;5522;42.696;23.494;2023-12-20T07:15:53;81.47;;;20.83;;
10939;SDS011;5522;42.696;23.494;2023-12-20T07:18:20;87.03;;;20.42;;
10939;SDS011;5522;42.696;23.494;2023-12-20T07:20:46;139.52;;;29.40;;
10939;SDS011;5522;42.696;23.494;2023-12-20T07:23:13;108.10;;;47.38;;
10939;SDS011;5522;42.696;23.494;2023-12-20T07:25:40;146.02;;;45.50;;
10939;SDS011;5522;42.696;23.494;2023-12-20T07:28:07;133.23;;;27.58;;
10939;SDS011;5522;42.696;23.494;2023-12-20T07:30:35;153.82;;;45.80;;
10939;SDS011;5522;42.696;23.494;2023-12-20T07:33:02;116.22;;;25.95;;
10939;SDS011;5522;42.696;23.494;2023-12-20T07:35:28;96.20;;;24.48;;
10939;SDS011;5522;42.696;23.494;2023-12-20T07:37:55;73.43;;;23.17;;
10939;SDS011;5522;42.696;23.494;2023-12-20T07:40:22;80.43;;;23.98;;
10939;SDS011;5522;42.696;23.494;2023-12-20T07:42:49;102.35;;;24.95;;
10939;SDS011;5522;42.696;23.494;2023-12-20T07:45:16;67.05;;;23.27;;
10939;SDS011;5522;42.696;23.494;2023-12-20T07:47:44;127.65;;;28.48;;
10939;SDS011;5522;42.696;23.494;2023-12-20T07:50:11;110.82;;;28.70;;
10939;SDS011;5522;42.696;23.494;2023-12-20T07:52:38;112.65;;;28.77;;
10939;SDS011;5522;42.696;23.494;2023-12-20T07:55:05;104.35;;;26.55;;
10939;SDS011;5522;42.696;23.494;2023-12-20T07:57:32;104.28;;;25.48;;
10939;SDS011;5522;42.696;23.494;2023-12-20T07:59:59;100.28;;;27.55;;
10939;SDS011;5522;42.696;23.494;2023-12-20T08:02:26;106.25;;;25.15;;
10939;SDS011;5522;42.696;23.494;2023-12-20T08:04:54;76.80;;;24.27;;
10939;SDS011;5522;42.696;23.494;2023-12-20T08:07:21;93.55;;;27.30;;
10939;SDS011;5522;42.696;23.494;2023-12-20T08:09:49;80.57;;;23.48;;
10939;SDS011;5522;42.696;23.494;2023-12-20T08:12:17;73.18;;;22.33;;
10939;SDS011;5522;42.696;23.494;2023-12-20T08:14:44;79.43;;;24.25;;
10939;SDS011;5522;42.696;23.494;2023-12-20T08:17:11;83.57;;;23.27;;
10939;SDS011;5522;42.696;23.494;2023-12-20T08:19:38;72.80;;;23.20;;
10939;SDS011;5522;42.696;23.494;2023-12-20T08:22:06;53.97;;;21.30;;
10939;SDS011;5522;42.696;23.494;2023-12-20T08:24:33;80.80;;;21.50;;
10939;SDS011;5522;42.696;23.494;2023-12-20T08:27:00;76.75;;;24.02;;
10939;SDS011;5522;42.696;23.494;2023-12-20T08:29:27;91.45;;;24.90;;
10939;SDS011;5522;42.696;23.494;2023-12-20T08:31:54;82.75;;;24.80;;
10939;SDS011;5522;42.696;23.494;2023-12-20T08:34:23;73.22;;;25.13;;
10939;SDS011;5522;42.696;23.494;2023-12-20T08:36:50;82.07;;;31.30;;
10939;SDS011;5522;42.696;23.494;2023-12-20T08:39:18;92.40;;;26.88;;
10939;SDS011;5522;42.696;23.494;2023-12-20T08:41:45;108.22;;;30.58;;
10939;SDS011;5522;42.696;23.494;2023-12-20T08:44:12;67.90;;;27.52;;
10939;SDS011;5522;42.696;23.494;2023-12-20T08:46:39;92.03;;;30.30;;
10939;SDS011;5522;42.696;23.494;2023-12-20T08:49:06;74.88;;;26.88;;
10939;SDS011;5522;42.696;23.494;2023-12-20T08:51:34;90.32;;;29.88;;
10939;SDS011;5522;42.696;23.494;2023-12-20T08:54:05;107.28;;;37.47;;
10939;SDS011;5522;42.696;23.494;2023-12-20T08:56:34;109.13;;;29.30;;
10939;SDS011;5522;42.696;23.494;2023-12-20T08:59:01;136.10;;;53.88;;
10939;SDS011;5522;42.696;23.494;2023-12-20T09:01:28;125.30;;;32.72;;
10939;SDS011;5522;42.696;23.494;2023-12-20T09:03:55;89.70;;;31.13;;
10939;SDS011;5522;42.696;23.494;2023-12-20T09:06:22;112.65;;;38.75;;
10939;SDS011;5522;42.696;23.494;2023-12-20T09:08:49;100.53;;;33.80;;
10939;SDS011;5522;42.696;23.494;2023-12-20T09:11:16;95.30;;;33.72;;
10939;SDS011;5522;42.696;23.494;2023-12-20T09:13:44;95.70;;;36.90;;
10939;SDS011;5522;42.696;23.494;2023-12-20T09:16:11;99.82;;;33.42;;
10939;SDS011;5522;42.696;23.494;2023-12-20T09:18:40;93.25;;;30.40;;
10939;SDS011;5522;42.696;23.494;2023-12-20T09:21:07;121.95;;;38.85;;
10939;SDS011;5522;42.696;23.494;2023-12-20T09:23:34;84.13;;;30.55;;
10939;SDS011;5522;42.696;23.494;2023-12-20T09:26:01;75.15;;;30.15;;
10939;SDS011;5522;42.696;23.494;2023-12-20T09:28:29;83.10;;;31.73;;
10939;SDS011;5522;42.696;23.494;2023-12-20T09:30:59;91.45;;;32.88;;
10939;SDS011;5522;42.696;23.494;2023-12-20T09:33:25;73.90;;;26.80;;
10939;SDS011;5522;42.696;23.494;2023-12-20T09:35:52;62.95;;;26.55;;
10939;SDS011;5522;42.696;23.494;2023-12-20T09:38:19;73.57;;;27.80;;
10939;SDS011;5522;42.696;23.494;2023-12-20T09:40:46;80.88;;;27.27;;
10939;SDS011;5522;42.696;23.494;2023-12-20T09:43:13;73.45;;;29.63;;
10939;SDS011;5522;42.696;23.494;2023-12-20T09:45:41;106.72;;;29.85;;
10939;SDS011;5522;42.696;23.494;2023-12-20T09:48:12;77.97;;;29.95;;
10939;SDS011;5522;42.696;23.494;2023-12-20T09:50:40;99.38;;;31.70;;
10939;SDS011;5522;42.696;23.494;2023-12-20T09:53:08;82.20;;;28.08;;
10939;SDS011;5522;42.696;23.494;2023-12-20T09:55:36;85.03;;;27.90;;
10939;SDS011;5522;42.696;23.494;2023-12-20T09:58:06;72.53;;;28.13;;
10939;SDS011;5522;42.696;23.494;2023-12-20T10:00:33;74.82;;;25.67;;
10939;SDS011;5522;42.696;23.494;2023-12-20T10:03:00;81.68;;;32.03;;
10939;SDS011;5522;42.696;23.494;2023-12-20T10:05:29;76.65;;;29.40;;
10939;SDS011;5522;42.696;23.494;2023-12-20T10:07:57;73.20;;;28.08;;
10939;SDS011;5522;42.696;23.494;2023-12-20T10:10:25;81.82;;;26.92;;
10939;SDS011;5522;42.696;23.494;2023-12-20T10:13:01;82.65;;;25.83;;
10939;SDS011;5522;42.696;23.494;2023-12-20T10:15:29;58.63;;;25.83;;
10939;SDS011;5522;42.696;23.494;2023-12-20T10:17:57;63.58;;;27.20;;
10939;SDS011;5522;42.696;23.494;2023-12-20T10:20:25;70.43;;;26.33;;
10939;SDS011;5522;42.696;23.494;2023-12-20T10:22:55;77.25;;;29.83;;
10939;SDS011;5522;42.696;23.494;2023-12-20T10:25:22;74.57;;;29.10;;
10939;SDS011;5522;42.696;23.494;2023-12-20T10:27:50;94.05;;;30.77;;
10939;SDS011;5522;42.696;23.494;2023-12-20T10:30:34;69.88;;;29.23;;
10939;SDS011;5522;42.696;23.494;2023-12-20T10:33:01;59.45;;;26.52;;
10939;SDS011;5522;42.696;23.494;2023-12-20T10:35:28;75.50;;;32.30;;
10939;SDS011;5522;42.696;23.494;2023-12-20T10:37:56;58.00;;;26.73;;
10939;SDS011;5522;42.696;23.494;2023-12-20T10:40:25;63.97;;;28.58;;
10939;SDS011;5522;42.696;23.494;2023-12-20T10:42:55;74.15;;;25.40;;
10939;SDS011;5522;42.696;23.494;2023-12-20T10:45:22;67.70;;;27.23;;
10939;SDS011;5522;42.696;23.494;2023-12-20T10:47:50;58.38;;;27.95;;
10939;SDS011;5522;42.696;23.494;2023-12-20T10:50:17;72.78;;;29.95;;
10939;SDS011;5522;42.696;23.494;2023-12-20T10:52:45;62.45;;;30.23;;
10939;SDS011;5522;42.696;23.494;2023-12-20T10:55:15;63.97;;;28.77;;
10939;SDS011;5522;42.696;23.494;2023-12-20T10:57:41;63.10;;;29.23;;
10939;SDS011;5522;42.696;23.494;2023-12-20T11:00:16;69.28;;;26.83;;
10939;SDS011;5522;42.696;23.494;2023-12-20T11:02:44;58.92;;;26.52;;
10939;SDS011;5522;42.696;23.494;2023-12-20T11:05:14;55.20;;;23.77;;
10939;SDS011;5522;42.696;23.494;2023-12-20T11:07:52;57.83;;;22.92;;
10939;SDS011;5522;42.696;23.494;2023-12-20T11:10:27;62.55;;;24.02;;
10939;SDS011;5522;42.696;23.494;2023-12-20T11:12:57;95.63;;;22.67;;
10939;SDS011;5522;42.696;23.494;2023-12-20T11:15:34;59.40;;;26.23;;
10939;SDS011;5522;42.696;23.494;2023-12-20T11:18:02;66.57;;;21.60;;
10939;SDS011;5522;42.696;23.494;2023-12-20T11:20:35;86.68;;;19.25;;
10939;SDS011;5522;42.696;23.494;2023-12-20T11:23:03;97.72;;;26.52;;
10939;SDS011;5522;42.696;23.494;2023-12-20T11:25:35;104.13;;;25.85;;
10939;SDS011;5522;42.696;23.494;2023-12-20T11:28:12;97.78;;;26.40;;
10939;SDS011;5522;42.696;23.494;2023-12-20T11:30:45;66.55;;;26.75;;
10939;SDS011;5522;42.696;23.494;2023-12-20T11:33:13;93.80;;;29.45;;
10939;SDS011;5522;42.696;23.494;2023-12-20T11:35:40;115.93;;;31.52;;
10939;SDS011;5522;42.696;23.494;2023-12-20T11:38:08;75.65;;;31.33;;
10939;SDS011;5522;42.696;23.494;2023-12-20T11:40:37;75.85;;;31.98;;
10939;SDS011;5522;42.696;23.494;2023-12-20T11:43:04;82.95;;;27.83;;
10939;SDS011;5522;42.696;23.494;2023-12-20T11:45:31;69.63;;;21.48;;
10939;SDS011;5522;42.696;23.494;2023-12-20T11:47:59;69.05;;;25.23;;
10939;SDS011;5522;42.696;23.494;2023-12-20T11:50:28;75.95;;;25.30;;
10939;SDS011;5522;42.696;23.494;2023-12-20T11:52:56;66.18;;;26.40;;
10939;SDS011;5522;42.696;23.494;2023-12-20T11:55:23;126.22;;;30.20;;
10939;SDS011;5522;42.696;23.494;2023-12-20T11:57:51;73.85;;;20.05;;
10939;SDS011;5522;42.696;23.494;2023-12-20T12:00:19;171.80;;;31.23;;
10939;SDS011;5522;42.696;23.494;2023-12-20T12:02:56;90.75;;;24.42;;
10939;SDS011;5522;42.696;23.494;2023-12-20T12:05:28;77.45;;;18.52;;
10939;SDS011;5522;42.696;23.494;2023-12-20T12:07:54;88.22;;;15.35;;
10939;SDS011;5522;42.696;23.494;2023-12-20T12:10:21;94.97;;;19.60;;
10939;SDS011;5522;42.696;23.494;2023-12-20T12:12:48;67.35;;;18.88;;
10939;SDS011;5522;42.696;23.494;2023-12-20T12:15:16;86.30;;;16.90;;
10939;SDS011;5522;42.696;23.494;2023-12-20T12:17:43;115.03;;;15.80;;
10939;SDS011;5522;42.696;23.494;2023-12-20T12:20:10;93.13;;;14.48;;
10939;SDS011;5522;42.696;23.494;2023-12-20T12:22:37;41.58;;;14.07;;
10939;SDS011;5522;42.696;23.494;2023-12-20T12:25:11;144.90;;;15.38;;
10939;SDS011;5522;42.696;23.494;2023-12-20T12:27:39;86.38;;;14.43;;
10939;SDS011;5522;42.696;23.494;2023-12-20T12:30:07;134.90;;;16.05;;
10939;SDS011;5522;42.696;23.494;2023-12-20T12:32:39;72.28;;;16.73;;
10939;SDS011;5522;42.696;23.494;2023-12-20T12:35:07;78.50;;;15.25;;
10939;SDS011;5522;42.696;23.494;2023-12-20T12:37:35;84.10;;;18.65;;
10939;SDS011;5522;42.696;23.494;2023-12-20T12:40:05;110.93;;;19.27;;
10939;SDS011;5522;42.696;23.494;2023-12-20T12:42:32;74.93;;;19.25;;
10939;SDS011;5522;42.696;23.494;2023-12-20T12:44:59;72.78;;;18.95;;
10939;SDS011;5522;42.696;23.494;2023-12-20T12:47:26;63.55;;;18.35;;
10939;SDS011;5522;42.696;23.494;2023-12-20T12:49:54;65.28;;;19.15;;
10939;SDS011;5522;42.696;23.494;2023-12-20T12:52:21;69.07;;;19.77;;
10939;SDS011;5522;42.696;23.494;2023-12-20T12:54:48;76.55;;;22.90;;
10939;SDS011;5522;42.696;23.494;2023-12-20T12:57:15;77.28;;;19.77;;
10939;SDS011;5522;42.696;23.494;2023-12-20T12:59:42;74.47;;;21.98;;
10939;SDS011;5522;42.696;23.494;2023-12-20T13:02:11;82.63;;;24.75;;
10939;SDS011;5522;42.696;23.494;2023-12-20T13:04:38;137.63;;;48.67;;
10939;SDS011;5522;42.696;23.494;2023-12-20T13:07:07;353.80;;;118.43;;
10939;SDS011;5522;42.696;23.494;2023-12-20T13:09:35;126.57;;;33.38;;
10939;SDS011;5522;42.696;23.494;2023-12-20T13:12:02;115.68;;;28.55;;
10939;SDS011;5522;42.696;23.494;2023-12-20T13:14:31;139.55;;;22.80;;
10939;SDS011;5522;42.696;23.494;2023-12-20T13:16:59;100.40;;;23.98;;
10939;SDS011;5522;42.696;23.494;2023-12-20T13:19:26;119.97;;;23.02;;
10939;SDS011;5522;42.696;23.494;2023-12-20T13:21:53;96.80;;;24.55;;
10939;SDS011;5522;42.696;23.494;2023-12-20T13:24:21;151.45;;;27.48;;
10939;SDS011;5522;42.696;23.494;2023-12-20T13:26:48;106.30;;;23.73;;
10939;SDS011;5522;42.696;23.494;2023-12-20T13:29:15;83.05;;;24.58;;
10939;SDS011;5522;42.696;23.494;2023-12-20T13:31:42;148.02;;;28.55;;
10939;SDS011;5522;42.696;23.494;2023-12-20T13:34:08;156.15;;;28.42;;
10939;SDS011;5522;42.696;23.494;2023-12-20T13:36:36;122.93;;;26.70;;
10939;SDS011;5522;42.696;23.494;2023-12-20T13:39:03;123.50;;;28.08;;
10939;SDS011;5522;42.696;23.494;2023-12-20T13:41:33;141.93;;;24.83;;
10939;SDS011;5522;42.696;23.494;2023-12-20T13:44:00;152.90;;;26.48;;
10939;SDS011;5522;42.696;23.494;2023-12-20T13:46:28;97.43;;;23.45;;
10939;SDS011;5522;42.696;23.494;2023-12-20T13:48:55;97.38;;;23.63;;
10939;SDS011;5522;42.696;23.494;2023-12-20T13:51:22;100.95;;;23.38;;
10939;SDS011;5522;42.696;23.494;2023-12-20T13:53:49;163.18;;;25.85;;
10939;SDS011;5522;42.696;23.494;2023-12-20T13:56:16;96.20;;;20.60;;
10939;SDS011;5522;42.696;23.494;2023-12-20T13:58:46;88.65;;;25.33;;
10939;SDS011;5522;42.696;23.494;2023-12-20T14:01:13;138.45;;;27.38;;
10939;SDS011;5522;42.696;23.494;2023-12-20T14:03:40;110.35;;;29.92;;
10939;SDS011;5522;42.696;23.494;2023-12-20T14:06:17;146.43;;;27.42;;
10939;SDS011;5522;42.696;23.494;2023-12-20T14:08:44;123.75;;;29.52;;
10939;SDS011;5522;42.696;23.494;2023-12-20T14:11:10;160.77;;;27.20;;
10939;SDS011;5522;42.696;23.494;2023-12-20T14:13:37;162.65;;;27.52;;
10939;SDS011;5522;42.696;23.494;2023-12-20T14:16:06;116.05;;;26.38;;
10939;SDS011;5522;42.696;23.494;2023-12-20T14:18:32;144.80;;;34.88;;
10939;SDS011;5522;42.696;23.494;2023-12-20T14:21:02;183.93;;;34.90;;
10939;SDS011;5522;42.696;23.494;2023-12-20T14:23:31;143.13;;;33.20;;